sensor_id;sensor_type;location;lat;lon;timestamp;P1;durP1;ratioP1;P2;durP2;ratioP2
1136;SDS011;557;48.466;7.950;2023-06-01T00:00:07;18.20;;;16.93;;
1136;SDS011;557;48.466;7.950;2023-06-01T00:02:56;19.77;;;18.53;;
1136;SDS011;557;48.466;7.950;2023-06-01T00:05:43;19.67;;;18.47;;
1136;SDS011;557;48.466;7.950;2023-06-01T00:08:30;18.50;;;17.40;;
1136;SDS011;557;48.466;7.950;2023-06-01T00:11:18;17.37;;;16.37;;
1136;SDS011;557;48.466;7.950;2023-06-01T00:14:07;17.30;;;16.30;;
1136;SDS011;557;48.466;7.950;2023-06-01T00:16:54;17.03;;;16.13;;
1136;SDS011;557;48.466;7.950;2023-06-01T00:19:42;17.53;;;16.23;;
1136;SDS011;557;48.466;7.950;2023-06-01T00:22:30;17.30;;;16.30;;
1136;SDS011;557;48.466;7.950;2023-06-01T00:25:19;17.17;;;16.23;;
1136;SDS011;557;48.466;7.950;2023-06-01T00:28:07;17.10;;;16.20;;
1136;SDS011;557;48.466;7.950;2023-06-01T00:30:55;16.70;;;15.70;;
1136;SDS011;557;48.466;7.950;2023-06-01T00:33:43;17.10;;;16.10;;
1136;SDS011;557;48.466;7.950;2023-06-01T00:36:31;17.43;;;16.13;;
1136;SDS011;557;48.466;7.950;2023-06-01T00:39:18;17.00;;;15.93;;
1136;SDS011;557;48.466;7.950;2023-06-01T00:42:05;17.17;;;16.00;;
1136;SDS011;557;48.466;7.950;2023-06-01T00:44:53;17.30;;;16.20;;
1136;SDS011;557;48.466;7.950;2023-06-01T00:47:41;17.50;;;16.50;;
1136;SDS011;557;48.466;7.950;2023-06-01T00:50:29;16.70;;;15.70;;
1136;SDS011;557;48.466;7.950;2023-06-01T00:53:18;16.90;;;15.90;;
1136;SDS011;557;48.466;7.950;2023-06-01T00:56:06;16.27;;;15.27;;
1136;SDS011;557;48.466;7.950;2023-06-01T00:58:53;15.83;;;14.83;;
1136;SDS011;557;48.466;7.950;2023-06-01T01:01:41;15.90;;;15.00;;
1136;SDS011;557;48.466;7.950;2023-06-01T01:04:30;16.67;;;15.30;;
1136;SDS011;557;48.466;7.950;2023-06-01T01:07:19;16.50;;;15.60;;
1136;SDS011;557;48.466;7.950;2023-06-01T01:10:14;15.50;;;14.60;;
1136;SDS011;557;48.466;7.950;2023-06-01T01:13:13;16.43;;;15.50;;
1136;SDS011;557;48.466;7.950;2023-06-01T01:16:07;16.03;;;15.07;;
1136;SDS011;557;48.466;7.950;2023-06-01T01:18:59;16.17;;;15.17;;
1136;SDS011;557;48.466;7.950;2023-06-01T01:21:57;15.60;;;14.80;;
1136;SDS011;557;48.466;7.950;2023-06-01T01:24:59;15.37;;;14.57;;
1136;SDS011;557;48.466;7.950;2023-06-01T01:28:07;15.83;;;14.83;;
1136;SDS011;557;48.466;7.950;2023-06-01T01:31:01;15.57;;;14.50;;
1136;SDS011;557;48.466;7.950;2023-06-01T01:33:53;15.60;;;14.70;;
1136;SDS011;557;48.466;7.950;2023-06-01T01:36:42;15.43;;;14.53;;
1136;SDS011;557;48.466;7.950;2023-06-01T01:39:29;15.40;;;14.40;;
1136;SDS011;557;48.466;7.950;2023-06-01T01:42:16;14.97;;;14.17;;
1136;SDS011;557;48.466;7.950;2023-06-01T01:45:04;14.80;;;13.90;;
1136;SDS011;557;48.466;7.950;2023-06-01T01:47:57;15.43;;;14.43;;
1136;SDS011;557;48.466;7.950;2023-06-01T01:50:49;15.23;;;14.13;;
1136;SDS011;557;48.466;7.950;2023-06-01T01:53:39;15.93;;;14.80;;
1136;SDS011;557;48.466;7.950;2023-06-01T01:56:28;15.80;;;14.80;;
1136;SDS011;557;48.466;7.950;2023-06-01T01:59:16;15.83;;;14.90;;
1136;SDS011;557;48.466;7.950;2023-06-01T02:02:04;15.07;;;14.27;;
1136;SDS011;557;48.466;7.950;2023-06-01T02:04:53;15.57;;;14.50;;
1136;SDS011;557;48.466;7.950;2023-06-01T02:07:40;15.20;;;14.30;;
1136;SDS011;557;48.466;7.950;2023-06-01T02:10:28;14.70;;;13.87;;
1136;SDS011;557;48.466;7.950;2023-06-01T02:13:15;14.80;;;13.90;;
1136;SDS011;557;48.466;7.950;2023-06-01T02:16:03;14.83;;;13.93;;
1136;SDS011;557;48.466;7.950;2023-06-01T02:18:51;14.70;;;13.80;;
1136;SDS011;557;48.466;7.950;2023-06-01T02:21:40;15.20;;;14.00;;
1136;SDS011;557;48.466;7.950;2023-06-01T02:24:27;15.30;;;14.37;;
1136;SDS011;557;48.466;7.950;2023-06-01T02:27:15;14.33;;;13.50;;
1136;SDS011;557;48.466;7.950;2023-06-01T02:30:03;14.70;;;13.80;;
1136;SDS011;557;48.466;7.950;2023-06-01T02:32:53;14.30;;;13.50;;
1136;SDS011;557;48.466;7.950;2023-06-01T02:35:40;14.70;;;13.80;;
1136;SDS011;557;48.466;7.950;2023-06-01T02:38:29;14.03;;;13.13;;
1136;SDS011;557;48.466;7.950;2023-06-01T02:41:16;14.60;;;13.60;;
1136;SDS011;557;48.466;7.950;2023-06-01T02:44:03;14.40;;;13.50;;
1136;SDS011;557;48.466;7.950;2023-06-01T02:46:51;14.10;;;13.23;;
1136;SDS011;557;48.466;7.950;2023-06-01T02:49:38;14.80;;;13.90;;
1136;SDS011;557;48.466;7.950;2023-06-01T02:52:26;14.50;;;13.50;;
1136;SDS011;557;48.466;7.950;2023-06-01T02:55:14;14.80;;;13.80;;
1136;SDS011;557;48.466;7.950;2023-06-01T02:58:02;15.20;;;14.30;;
1136;SDS011;557;48.466;7.950;2023-06-01T03:00:49;15.47;;;14.17;;
1136;SDS011;557;48.466;7.950;2023-06-01T03:03:37;14.80;;;13.80;;
1136;SDS011;557;48.466;7.950;2023-06-01T03:06:24;14.43;;;13.63;;
1136;SDS011;557;48.466;7.950;2023-06-01T03:09:17;14.03;;;13.13;;
1136;SDS011;557;48.466;7.950;2023-06-01T03:12:06;14.50;;;13.53;;
1136;SDS011;557;48.466;7.950;2023-06-01T03:14:53;14.17;;;13.27;;
1136;SDS011;557;48.466;7.950;2023-06-01T03:17:41;14.63;;;13.73;;
1136;SDS011;557;48.466;7.950;2023-06-01T03:20:29;13.50;;;12.70;;
1136;SDS011;557;48.466;7.950;2023-06-01T03:23:16;13.50;;;12.70;;
1136;SDS011;557;48.466;7.950;2023-06-01T03:26:03;13.60;;;12.70;;
1136;SDS011;557;48.466;7.950;2023-06-01T03:28:52;14.27;;;13.00;;
1136;SDS011;557;48.466;7.950;2023-06-01T03:31:41;13.63;;;12.70;;
1136;SDS011;557;48.466;7.950;2023-06-01T03:34:29;13.37;;;12.40;;
1136;SDS011;557;48.466;7.950;2023-06-01T03:37:18;12.80;;;11.90;;
1136;SDS011;557;48.466;7.950;2023-06-01T03:40:06;12.83;;;11.83;;
1136;SDS011;557;48.466;7.950;2023-06-01T03:42:57;13.27;;;12.33;;
1136;SDS011;557;48.466;7.950;2023-06-01T03:45:45;12.00;;;11.10;;
1136;SDS011;557;48.466;7.950;2023-06-01T03:48:33;11.93;;;11.13;;
1136;SDS011;557;48.466;7.950;2023-06-01T03:51:20;12.40;;;11.50;;
1136;SDS011;557;48.466;7.950;2023-06-01T03:54:07;11.27;;;10.40;;
1136;SDS011;557;48.466;7.950;2023-06-01T03:56:55;11.83;;;11.13;;
1136;SDS011;557;48.466;7.950;2023-06-01T03:59:42;12.20;;;11.40;;
1136;SDS011;557;48.466;7.950;2023-06-01T04:02:31;11.90;;;11.10;;
1136;SDS011;557;48.466;7.950;2023-06-01T04:05:19;12.30;;;11.30;;
1136;SDS011;557;48.466;7.950;2023-06-01T04:08:06;12.60;;;11.80;;
1136;SDS011;557;48.466;7.950;2023-06-01T04:10:54;12.63;;;11.73;;
1136;SDS011;557;48.466;7.950;2023-06-01T04:13:41;12.83;;;12.07;;
1136;SDS011;557;48.466;7.950;2023-06-01T04:16:29;12.73;;;12.03;;
1136;SDS011;557;48.466;7.950;2023-06-01T04:19:18;12.77;;;11.97;;
1136;SDS011;557;48.466;7.950;2023-06-01T04:22:05;11.23;;;10.43;;
1136;SDS011;557;48.466;7.950;2023-06-01T04:24:52;12.40;;;11.60;;
1136;SDS011;557;48.466;7.950;2023-06-01T04:27:42;12.20;;;11.40;;
1136;SDS011;557;48.466;7.950;2023-06-01T04:30:31;11.43;;;10.73;;
1136;SDS011;557;48.466;7.950;2023-06-01T04:33:18;12.90;;;12.00;;
1136;SDS011;557;48.466;7.950;2023-06-01T04:36:07;12.53;;;11.50;;
1136;SDS011;557;48.466;7.950;2023-06-01T04:38:55;12.03;;;11.10;;
1136;SDS011;557;48.466;7.950;2023-06-01T04:41:44;10.57;;;9.87;;
1136;SDS011;557;48.466;7.950;2023-06-01T04:44:32;10.87;;;10.13;;
1136;SDS011;557;48.466;7.950;2023-06-01T04:47:19;12.23;;;11.43;;
1136;SDS011;557;48.466;7.950;2023-06-01T04:50:08;12.70;;;11.80;;
1136;SDS011;557;48.466;7.950;2023-06-01T04:52:58;12.37;;;11.57;;
1136;SDS011;557;48.466;7.950;2023-06-01T04:55:45;11.90;;;11.10;;
1136;SDS011;557;48.466;7.950;2023-06-01T04:58:34;13.40;;;12.20;;
1136;SDS011;557;48.466;7.950;2023-06-01T05:01:21;12.10;;;11.30;;
1136;SDS011;557;48.466;7.950;2023-06-01T05:04:10;12.80;;;12.00;;
1136;SDS011;557;48.466;7.950;2023-06-01T05:06:57;13.57;;;12.40;;
1136;SDS011;557;48.466;7.950;2023-06-01T05:09:46;13.80;;;12.50;;
1136;SDS011;557;48.466;7.950;2023-06-01T05:12:34;13.70;;;12.77;;
1136;SDS011;557;48.466;7.950;2023-06-01T05:15:22;14.07;;;13.10;;
1136;SDS011;557;48.466;7.950;2023-06-01T05:18:10;15.17;;;14.20;;
1136;SDS011;557;48.466;7.950;2023-06-01T05:20:57;14.20;;;13.30;;
1136;SDS011;557;48.466;7.950;2023-06-01T05:23:45;16.07;;;14.77;;
1136;SDS011;557;48.466;7.950;2023-06-01T05:26:34;16.13;;;15.13;;
1136;SDS011;557;48.466;7.950;2023-06-01T05:29:21;15.60;;;14.40;;
1136;SDS011;557;48.466;7.950;2023-06-01T05:32:09;14.83;;;13.80;;
1136;SDS011;557;48.466;7.950;2023-06-01T05:34:56;14.93;;;14.03;;
1136;SDS011;557;48.466;7.950;2023-06-01T05:37:43;14.40;;;13.50;;
1136;SDS011;557;48.466;7.950;2023-06-01T05:40:31;15.10;;;14.17;;
1136;SDS011;557;48.466;7.950;2023-06-01T05:43:19;15.33;;;14.43;;
1136;SDS011;557;48.466;7.950;2023-06-01T05:46:07;15.17;;;14.07;;
1136;SDS011;557;48.466;7.950;2023-06-01T05:48:54;15.13;;;14.03;;
1136;SDS011;557;48.466;7.950;2023-06-01T05:51:42;15.30;;;14.40;;
1136;SDS011;557;48.466;7.950;2023-06-01T05:54:29;15.20;;;14.10;;
1136;SDS011;557;48.466;7.950;2023-06-01T05:57:16;16.00;;;15.00;;
1136;SDS011;557;48.466;7.950;2023-06-01T06:00:06;16.87;;;15.37;;
1136;SDS011;557;48.466;7.950;2023-06-01T06:02:57;20.37;;;19.07;;
1136;SDS011;557;48.466;7.950;2023-06-01T06:05:45;16.27;;;15.00;;
1136;SDS011;557;48.466;7.950;2023-06-01T06:08:32;16.27;;;15.20;;
1136;SDS011;557;48.466;7.950;2023-06-01T06:11:19;17.23;;;15.93;;
1136;SDS011;557;48.466;7.950;2023-06-01T06:14:07;16.53;;;15.47;;
1136;SDS011;557;48.466;7.950;2023-06-01T06:16:58;25.30;;;23.67;;
1136;SDS011;557;48.466;7.950;2023-06-01T06:19:45;16.80;;;15.73;;
1136;SDS011;557;48.466;7.950;2023-06-01T06:22:34;17.43;;;16.27;;
1136;SDS011;557;48.466;7.950;2023-06-01T06:25:21;17.27;;;16.00;;
1136;SDS011;557;48.466;7.950;2023-06-01T06:28:09;17.73;;;16.43;;
1136;SDS011;557;48.466;7.950;2023-06-01T06:30:56;16.93;;;15.70;;
1136;SDS011;557;48.466;7.950;2023-06-01T06:33:46;16.57;;;15.57;;
1136;SDS011;557;48.466;7.950;2023-06-01T06:36:33;16.43;;;15.43;;
1136;SDS011;557;48.466;7.950;2023-06-01T06:39:22;16.67;;;15.43;;
1136;SDS011;557;48.466;7.950;2023-06-01T06:42:09;16.80;;;15.60;;
1136;SDS011;557;48.466;7.950;2023-06-01T06:44:57;16.27;;;15.17;;
1136;SDS011;557;48.466;7.950;2023-06-01T06:47:44;16.60;;;15.40;;
1136;SDS011;557;48.466;7.950;2023-06-01T06:50:33;16.70;;;15.50;;
1136;SDS011;557;48.466;7.950;2023-06-01T06:53:21;17.50;;;16.30;;
1136;SDS011;557;48.466;7.950;2023-06-01T06:56:08;16.70;;;15.70;;
1136;SDS011;557;48.466;7.950;2023-06-01T06:58:55;15.93;;;14.90;;
1136;SDS011;557;48.466;7.950;2023-06-01T07:01:43;16.80;;;15.70;;
1136;SDS011;557;48.466;7.950;2023-06-01T07:04:30;16.90;;;15.70;;
1136;SDS011;557;48.466;7.950;2023-06-01T07:07:19;17.73;;;16.63;;
1136;SDS011;557;48.466;7.950;2023-06-01T07:10:06;17.00;;;16.00;;
1136;SDS011;557;48.466;7.950;2023-06-01T07:12:54;18.40;;;17.20;;
1136;SDS011;557;48.466;7.950;2023-06-01T07:15:41;18.53;;;17.07;;
1136;SDS011;557;48.466;7.950;2023-06-01T07:18:28;17.27;;;16.27;;
1136;SDS011;557;48.466;7.950;2023-06-01T07:21:16;17.33;;;16.20;;
1136;SDS011;557;48.466;7.950;2023-06-01T07:24:05;17.17;;;15.80;;
1136;SDS011;557;48.466;7.950;2023-06-01T07:26:54;16.60;;;15.60;;
1136;SDS011;557;48.466;7.950;2023-06-01T07:29:42;17.80;;;16.50;;
1136;SDS011;557;48.466;7.950;2023-06-01T07:32:31;25.17;;;23.77;;
1136;SDS011;557;48.466;7.950;2023-06-01T07:35:18;17.47;;;16.33;;
1136;SDS011;557;48.466;7.950;2023-06-01T07:38:05;17.13;;;16.07;;
1136;SDS011;557;48.466;7.950;2023-06-01T07:40:54;17.00;;;16.00;;
1136;SDS011;557;48.466;7.950;2023-06-01T07:43:42;20.83;;;19.37;;
1136;SDS011;557;48.466;7.950;2023-06-01T07:46:29;19.80;;;18.60;;
1136;SDS011;557;48.466;7.950;2023-06-01T07:49:16;18.40;;;17.40;;
1136;SDS011;557;48.466;7.950;2023-06-01T07:52:04;19.67;;;18.47;;
1136;SDS011;557;48.466;7.950;2023-06-01T07:54:52;18.17;;;17.17;;
1136;SDS011;557;48.466;7.950;2023-06-01T07:57:41;18.00;;;16.90;;
1136;SDS011;557;48.466;7.950;2023-06-01T08:00:28;19.33;;;18.23;;
1136;SDS011;557;48.466;7.950;2023-06-01T08:03:16;18.80;;;17.70;;
1136;SDS011;557;48.466;7.950;2023-06-01T08:06:07;19.80;;;18.50;;
1136;SDS011;557;48.466;7.950;2023-06-01T08:08:54;18.10;;;17.00;;
1136;SDS011;557;48.466;7.950;2023-06-01T08:11:41;18.47;;;17.37;;
1136;SDS011;557;48.466;7.950;2023-06-01T08:14:30;18.60;;;17.40;;
1136;SDS011;557;48.466;7.950;2023-06-01T08:17:19;20.13;;;18.83;;
1136;SDS011;557;48.466;7.950;2023-06-01T08:20:06;19.17;;;17.98;;
1136;SDS011;557;48.466;7.950;2023-06-01T08:22:56;20.40;;;19.20;;
1136;SDS011;557;48.466;7.950;2023-06-01T08:25:44;19.00;;;18.00;;
1136;SDS011;557;48.466;7.950;2023-06-01T08:28:32;19.15;;;18.05;;
1136;SDS011;557;48.466;7.950;2023-06-01T08:31:21;18.80;;;17.70;;
1136;SDS011;557;48.466;7.950;2023-06-01T08:34:09;19.40;;;18.30;;
1136;SDS011;557;48.466;7.950;2023-06-01T08:36:56;18.92;;;17.83;;
1136;SDS011;557;48.466;7.950;2023-06-01T08:39:43;20.17;;;18.98;;
1136;SDS011;557;48.466;7.950;2023-06-01T08:42:34;21.33;;;20.08;;
1136;SDS011;557;48.466;7.950;2023-06-01T08:45:25;20.45;;;19.13;;
1136;SDS011;557;48.466;7.950;2023-06-01T08:48:17;19.95;;;18.85;;
1136;SDS011;557;48.466;7.950;2023-06-01T08:51:05;20.42;;;19.13;;
1136;SDS011;557;48.466;7.950;2023-06-01T08:53:53;19.83;;;18.73;;
1136;SDS011;557;48.466;7.950;2023-06-01T08:56:43;20.60;;;19.27;;
1136;SDS011;557;48.466;7.950;2023-06-01T08:59:31;20.15;;;18.95;;
1136;SDS011;557;48.466;7.950;2023-06-01T09:02:20;20.67;;;19.38;;
1136;SDS011;557;48.466;7.950;2023-06-01T09:05:09;20.90;;;19.50;;
1136;SDS011;557;48.466;7.950;2023-06-01T09:07:56;20.60;;;19.40;;
1136;SDS011;557;48.466;7.950;2023-06-01T09:10:44;20.35;;;19.15;;
1136;SDS011;557;48.466;7.950;2023-06-01T09:13:31;21.25;;;19.85;;
1136;SDS011;557;48.466;7.950;2023-06-01T09:16:19;21.20;;;19.65;;
1136;SDS011;557;48.466;7.950;2023-06-01T09:19:06;20.73;;;19.50;;
1136;SDS011;557;48.466;7.950;2023-06-01T09:21:59;21.73;;;20.30;;
1136;SDS011;557;48.466;7.950;2023-06-01T09:24:56;21.60;;;20.17;;
1136;SDS011;557;48.466;7.950;2023-06-01T09:27:45;20.25;;;19.05;;
1136;SDS011;557;48.466;7.950;2023-06-01T09:30:38;29.95;;;28.20;;
1136;SDS011;557;48.466;7.950;2023-06-01T09:33:27;20.65;;;19.17;;
1136;SDS011;557;48.466;7.950;2023-06-01T09:36:22;21.38;;;20.05;;
1136;SDS011;557;48.466;7.950;2023-06-01T09:39:13;20.85;;;19.55;;
1136;SDS011;557;48.466;7.950;2023-06-01T09:42:01;22.08;;;20.67;;
1136;SDS011;557;48.466;7.950;2023-06-01T09:44:49;21.50;;;20.20;;
1136;SDS011;557;48.466;7.950;2023-06-01T09:47:37;20.52;;;19.23;;
1136;SDS011;557;48.466;7.950;2023-06-01T09:50:33;21.33;;;19.98;;
1136;SDS011;557;48.466;7.950;2023-06-01T09:53:21;21.52;;;20.13;;
1136;SDS011;557;48.466;7.950;2023-06-01T09:56:10;21.50;;;19.80;;
1136;SDS011;557;48.466;7.950;2023-06-01T09:58:58;21.10;;;19.75;;
1136;SDS011;557;48.466;7.950;2023-06-01T10:01:47;23.17;;;21.17;;
1136;SDS011;557;48.466;7.950;2023-06-01T10:04:38;21.95;;;20.65;;
1136;SDS011;557;48.466;7.950;2023-06-01T10:07:27;24.52;;;23.02;;
1136;SDS011;557;48.466;7.950;2023-06-01T10:10:16;30.02;;;27.98;;
1136;SDS011;557;48.466;7.950;2023-06-01T10:13:05;23.92;;;22.33;;
1136;SDS011;557;48.466;7.950;2023-06-01T10:15:53;20.77;;;19.55;;
1136;SDS011;557;48.466;7.950;2023-06-01T10:18:41;21.02;;;19.65;;
1136;SDS011;557;48.466;7.950;2023-06-01T10:21:28;19.98;;;18.77;;
1136;SDS011;557;48.466;7.950;2023-06-01T10:24:17;22.88;;;21.40;;
1136;SDS011;557;48.466;7.950;2023-06-01T10:27:07;22.67;;;21.17;;
1136;SDS011;557;48.466;7.950;2023-06-01T10:30:01;22.65;;;21.00;;
1136;SDS011;557;48.466;7.950;2023-06-01T10:32:49;22.30;;;20.90;;
1136;SDS011;557;48.466;7.950;2023-06-01T10:38:48;21.50;;;20.13;;
1136;SDS011;557;48.466;7.950;2023-06-01T10:41:35;22.02;;;20.55;;
1136;SDS011;557;48.466;7.950;2023-06-01T10:47:47;22.25;;;20.85;;
1136;SDS011;557;48.466;7.950;2023-06-01T10:50:34;21.98;;;20.58;;
1136;SDS011;557;48.466;7.950;2023-06-01T10:53:26;22.05;;;20.70;;
1136;SDS011;557;48.466;7.950;2023-06-01T10:56:17;22.02;;;20.65;;
1136;SDS011;557;48.466;7.950;2023-06-01T10:59:10;22.58;;;21.17;;
1136;SDS011;557;48.466;7.950;2023-06-01T11:02:02;21.98;;;20.58;;
1136;SDS011;557;48.466;7.950;2023-06-01T11:04:52;21.48;;;20.02;;
1136;SDS011;557;48.466;7.950;2023-06-01T11:07:40;22.38;;;20.90;;
1136;SDS011;557;48.466;7.950;2023-06-01T11:13:41;22.58;;;21.17;;
1136;SDS011;557;48.466;7.950;2023-06-01T11:16:30;22.70;;;21.08;;
1136;SDS011;557;48.466;7.950;2023-06-01T11:19:18;22.45;;;21.10;;
1136;SDS011;557;48.466;7.950;2023-06-01T11:22:11;23.33;;;21.83;;
1136;SDS011;557;48.466;7.950;2023-06-01T11:24:59;23.15;;;21.65;;
1136;SDS011;557;48.466;7.950;2023-06-01T11:27:51;23.52;;;21.85;;
1136;SDS011;557;48.466;7.950;2023-06-01T11:30:40;23.38;;;21.88;;
1136;SDS011;557;48.466;7.950;2023-06-01T11:33:29;23.30;;;21.83;;
1136;SDS011;557;48.466;7.950;2023-06-01T11:36:16;23.30;;;21.95;;
1136;SDS011;557;48.466;7.950;2023-06-01T11:39:15;24.38;;;22.88;;
1136;SDS011;557;48.466;7.950;2023-06-01T11:42:11;24.48;;;22.92;;
1136;SDS011;557;48.466;7.950;2023-06-01T11:44:58;23.90;;;22.48;;
1136;SDS011;557;48.466;7.950;2023-06-01T11:47:46;24.20;;;22.70;;
1136;SDS011;557;48.466;7.950;2023-06-01T11:50:33;23.60;;;22.25;;
1136;SDS011;557;48.466;7.950;2023-06-01T11:53:21;23.85;;;22.40;;
1136;SDS011;557;48.466;7.950;2023-06-01T11:56:09;23.30;;;21.90;;
1136;SDS011;557;48.466;7.950;2023-06-01T11:58:58;23.65;;;22.15;;
1136;SDS011;557;48.466;7.950;2023-06-01T12:01:46;24.25;;;22.75;;
1136;SDS011;557;48.466;7.950;2023-06-01T12:04:35;23.08;;;21.58;;
1136;SDS011;557;48.466;7.950;2023-06-01T12:07:22;23.35;;;21.98;;
1136;SDS011;557;48.466;7.950;2023-06-01T12:10:10;24.05;;;22.52;;
1136;SDS011;557;48.466;7.950;2023-06-01T12:13:01;22.90;;;21.50;;
1136;SDS011;557;48.466;7.950;2023-06-01T12:15:50;24.40;;;22.88;;
1136;SDS011;557;48.466;7.950;2023-06-01T12:18:38;23.35;;;21.95;;
1136;SDS011;557;48.466;7.950;2023-06-01T12:21:25;23.83;;;22.30;;
1136;SDS011;557;48.466;7.950;2023-06-01T12:24:13;23.42;;;22.02;;
1136;SDS011;557;48.466;7.950;2023-06-01T12:27:01;23.33;;;21.83;;
1136;SDS011;557;48.466;7.950;2023-06-01T12:29:59;23.27;;;21.77;;
1136;SDS011;557;48.466;7.950;2023-06-01T12:32:48;23.45;;;22.05;;
1136;SDS011;557;48.466;7.950;2023-06-01T12:35:46;24.10;;;22.65;;
1136;SDS011;557;48.466;7.950;2023-06-01T12:38:35;23.25;;;21.95;;
1136;SDS011;557;48.466;7.950;2023-06-01T12:41:23;24.13;;;22.73;;
1136;SDS011;557;48.466;7.950;2023-06-01T12:44:10;25.05;;;23.45;;
1136;SDS011;557;48.466;7.950;2023-06-01T12:47:07;29.17;;;27.27;;
1136;SDS011;557;48.466;7.950;2023-06-01T12:50:04;24.23;;;22.83;;
1136;SDS011;557;48.466;7.950;2023-06-01T12:52:52;24.85;;;22.98;;
1136;SDS011;557;48.466;7.950;2023-06-01T12:55:39;21.65;;;20.33;;
1136;SDS011;557;48.466;7.950;2023-06-01T12:58:26;24.35;;;22.77;;
1136;SDS011;557;48.466;7.950;2023-06-01T13:01:14;23.13;;;21.63;;
1136;SDS011;557;48.466;7.950;2023-06-01T13:04:03;23.77;;;22.30;;
1136;SDS011;557;48.466;7.950;2023-06-01T13:06:50;22.92;;;21.52;;
1136;SDS011;557;48.466;7.950;2023-06-01T13:09:38;24.08;;;22.58;;
1136;SDS011;557;48.466;7.950;2023-06-01T13:12:25;24.27;;;22.83;;
1136;SDS011;557;48.466;7.950;2023-06-01T13:15:13;24.80;;;23.20;;
1136;SDS011;557;48.466;7.950;2023-06-01T13:18:00;23.98;;;22.52;;
1136;SDS011;557;48.466;7.950;2023-06-01T13:20:50;23.38;;;21.88;;
1136;SDS011;557;48.466;7.950;2023-06-01T13:23:37;23.55;;;22.15;;
1136;SDS011;557;48.466;7.950;2023-06-01T13:26:25;24.70;;;23.20;;
1136;SDS011;557;48.466;7.950;2023-06-01T13:29:12;24.92;;;23.23;;
1136;SDS011;557;48.466;7.950;2023-06-01T13:31:59;23.63;;;22.20;;
1136;SDS011;557;48.466;7.950;2023-06-01T13:34:47;23.88;;;22.38;;
1136;SDS011;557;48.466;7.950;2023-06-01T13:37:36;24.73;;;23.33;;
1136;SDS011;557;48.466;7.950;2023-06-01T13:40:23;24.23;;;22.75;;
1136;SDS011;557;48.466;7.950;2023-06-01T13:43:10;23.85;;;22.42;;
1136;SDS011;557;48.466;7.950;2023-06-01T13:45:58;23.92;;;22.52;;
1136;SDS011;557;48.466;7.950;2023-06-01T13:48:45;23.75;;;22.35;;
1136;SDS011;557;48.466;7.950;2023-06-01T13:51:32;23.00;;;21.60;;
1136;SDS011;557;48.466;7.950;2023-06-01T13:54:24;23.65;;;22.35;;
1136;SDS011;557;48.466;7.950;2023-06-01T13:57:12;23.77;;;22.17;;
1136;SDS011;557;48.466;7.950;2023-06-01T13:59:59;23.75;;;22.30;;
1136;SDS011;557;48.466;7.950;2023-06-01T14:02:46;23.40;;;22.00;;
1136;SDS011;557;48.466;7.950;2023-06-01T14:05:34;23.38;;;21.98;;
1136;SDS011;557;48.466;7.950;2023-06-01T14:08:21;23.35;;;21.88;;
1136;SDS011;557;48.466;7.950;2023-06-01T14:11:10;23.50;;;22.10;;
1136;SDS011;557;48.466;7.950;2023-06-01T14:13:57;23.73;;;22.13;;
1136;SDS011;557;48.466;7.950;2023-06-01T14:16:44;23.80;;;22.40;;
1136;SDS011;557;48.466;7.950;2023-06-01T14:19:32;23.80;;;22.27;;
1136;SDS011;557;48.466;7.950;2023-06-01T14:22:19;23.65;;;22.20;;
1136;SDS011;557;48.466;7.950;2023-06-01T14:25:07;23.60;;;22.10;;
1136;SDS011;557;48.466;7.950;2023-06-01T14:27:56;23.98;;;22.52;;
1136;SDS011;557;48.466;7.950;2023-06-01T14:30:43;22.83;;;21.42;;
1136;SDS011;557;48.466;7.950;2023-06-01T14:33:32;25.38;;;23.88;;
1136;SDS011;557;48.466;7.950;2023-06-01T14:36:19;32.85;;;31.05;;
1136;SDS011;557;48.466;7.950;2023-06-01T14:39:06;23.95;;;22.55;;
1136;SDS011;557;48.466;7.950;2023-06-01T14:41:54;23.35;;;21.85;;
1136;SDS011;557;48.466;7.950;2023-06-01T14:44:43;23.27;;;21.90;;
1136;SDS011;557;48.466;7.950;2023-06-01T14:47:31;22.40;;;21.10;;
1136;SDS011;557;48.466;7.950;2023-06-01T14:50:18;22.75;;;21.45;;
1136;SDS011;557;48.466;7.950;2023-06-01T14:53:05;22.98;;;21.48;;
1136;SDS011;557;48.466;7.950;2023-06-01T14:55:53;23.27;;;21.77;;
1136;SDS011;557;48.466;7.950;2023-06-01T14:58:40;22.08;;;20.77;;
1136;SDS011;557;48.466;7.950;2023-06-01T15:01:29;22.77;;;21.48;;
1136;SDS011;557;48.466;7.950;2023-06-01T15:04:16;23.02;;;21.63;;
1136;SDS011;557;48.466;7.950;2023-06-01T15:07:04;22.90;;;21.60;;
1136;SDS011;557;48.466;7.950;2023-06-01T15:09:51;22.38;;;21.13;;
1136;SDS011;557;48.466;7.950;2023-06-01T15:12:38;23.10;;;21.70;;
1136;SDS011;557;48.466;7.950;2023-06-01T15:15:26;22.80;;;21.40;;
1136;SDS011;557;48.466;7.950;2023-06-01T15:18:15;23.52;;;22.13;;
1136;SDS011;557;48.466;7.950;2023-06-01T15:21:02;22.33;;;21.05;;
1136;SDS011;557;48.466;7.950;2023-06-01T15:23:50;23.33;;;21.83;;
1136;SDS011;557;48.466;7.950;2023-06-01T15:26:37;21.98;;;20.67;;
1136;SDS011;557;48.466;7.950;2023-06-01T15:29:25;22.40;;;21.00;;
1136;SDS011;557;48.466;7.950;2023-06-01T15:32:12;22.60;;;21.30;;
1136;SDS011;557;48.466;7.950;2023-06-01T15:35:01;23.63;;;22.13;;
1136;SDS011;557;48.466;7.950;2023-06-01T15:37:50;23.63;;;22.13;;
1136;SDS011;557;48.466;7.950;2023-06-01T15:40:37;23.42;;;21.92;;
1136;SDS011;557;48.466;7.950;2023-06-01T15:43:25;22.77;;;21.45;;
1136;SDS011;557;48.466;7.950;2023-06-01T15:46:12;22.35;;;20.95;;
1136;SDS011;557;48.466;7.950;2023-06-01T15:48:59;21.88;;;20.58;;
1136;SDS011;557;48.466;7.950;2023-06-01T15:51:48;22.98;;;21.15;;
1136;SDS011;557;48.466;7.950;2023-06-01T15:54:35;22.92;;;21.52;;
1136;SDS011;557;48.466;7.950;2023-06-01T15:57:23;22.33;;;20.98;;
1136;SDS011;557;48.466;7.950;2023-06-01T16:00:11;22.60;;;21.30;;
1136;SDS011;557;48.466;7.950;2023-06-01T16:02:59;22.73;;;21.42;;
1136;SDS011;557;48.466;7.950;2023-06-01T16:05:46;22.73;;;21.35;;
1136;SDS011;557;48.466;7.950;2023-06-01T16:08:35;22.67;;;21.27;;
1136;SDS011;557;48.466;7.950;2023-06-01T16:11:22;22.38;;;20.75;;
1136;SDS011;557;48.466;7.950;2023-06-01T16:14:10;24.58;;;23.00;;
1136;SDS011;557;48.466;7.950;2023-06-01T16:16:57;24.15;;;22.75;;
1136;SDS011;557;48.466;7.950;2023-06-01T16:19:45;23.05;;;21.65;;
1136;SDS011;557;48.466;7.950;2023-06-01T16:22:32;24.55;;;23.15;;
1136;SDS011;557;48.466;7.950;2023-06-01T16:25:21;23.70;;;22.00;;
1136;SDS011;557;48.466;7.950;2023-06-01T16:28:11;27.85;;;26.15;;
1136;SDS011;557;48.466;7.950;2023-06-01T16:30:58;22.92;;;21.52;;
1136;SDS011;557;48.466;7.950;2023-06-01T16:33:46;23.20;;;21.80;;
1136;SDS011;557;48.466;7.950;2023-06-01T16:36:33;25.58;;;24.00;;
1136;SDS011;557;48.466;7.950;2023-06-01T16:39:24;23.23;;;21.70;;
1136;SDS011;557;48.466;7.950;2023-06-01T16:42:13;21.58;;;20.27;;
1136;SDS011;557;48.466;7.950;2023-06-01T16:45:00;22.20;;;20.90;;
1136;SDS011;557;48.466;7.950;2023-06-01T16:47:48;24.58;;;22.95;;
1136;SDS011;557;48.466;7.950;2023-06-01T16:50:35;24.80;;;23.35;;
1136;SDS011;557;48.466;7.950;2023-06-01T16:53:23;24.52;;;23.02;;
1136;SDS011;557;48.466;7.950;2023-06-01T16:56:10;20.98;;;19.75;;
1136;SDS011;557;48.466;7.950;2023-06-01T16:58:59;20.90;;;19.65;;
1136;SDS011;557;48.466;7.950;2023-06-01T17:01:46;26.60;;;25.10;;
1136;SDS011;557;48.466;7.950;2023-06-01T17:04:34;21.85;;;20.55;;
1136;SDS011;557;48.466;7.950;2023-06-01T17:07:21;21.77;;;20.48;;
1136;SDS011;557;48.466;7.950;2023-06-01T17:10:09;21.38;;;20.13;;
1136;SDS011;557;48.466;7.950;2023-06-01T17:12:56;22.95;;;21.55;;
1136;SDS011;557;48.466;7.950;2023-06-01T17:15:45;21.73;;;20.42;;
1136;SDS011;557;48.466;7.950;2023-06-01T17:18:32;21.02;;;19.73;;